createdAt,value
2023-06-19T00:00:53.543Z,2.60
2023-06-19T00:05:45.537Z,2.60
2023-06-19T00:10:37.423Z,2.35
2023-06-19T00:15:30.640Z,2.35
2023-06-19T00:20:22.973Z,2.58
2023-06-19T00:25:15.218Z,2.70
2023-06-19T00:30:07.561Z,2.55
2023-06-19T00:35:02.137Z,2.80
2023-06-19T00:39:54.251Z,2.50
2023-06-19T00:44:46.223Z,2.53
2023-06-19T00:49:38.119Z,2.63
2023-06-19T00:54:31.527Z,2.83
2023-06-19T00:59:23.681Z,2.75
2023-06-19T01:04:15.942Z,2.42
2023-06-19T01:09:13.600Z,2.70
2023-06-19T01:14:11.144Z,2.53
2023-06-19T01:19:04.915Z,2.97
2023-06-19T01:23:57.363Z,2.70
2023-06-19T01:28:49.276Z,2.70
2023-06-19T01:33:41.900Z,2.83
2023-06-19T01:38:34.261Z,2.80
2023-06-19T01:43:27.724Z,2.60
2023-06-19T01:48:19.668Z,2.28
2023-06-19T01:53:11.667Z,2.40
2023-06-19T02:02:55.957Z,2.47
2023-06-19T02:07:49.352Z,2.60
2023-06-19T02:17:33.635Z,2.88
2023-06-19T02:22:25.663Z,2.88
2023-06-19T02:27:19.733Z,2.88
2023-06-19T02:32:12.486Z,2.53
2023-06-19T02:37:04.562Z,2.67
2023-06-19T02:41:56.615Z,2.67
2023-06-19T02:46:48.443Z,2.72
2023-06-19T02:51:42.477Z,2.30
2023-06-19T02:56:34.737Z,2.40
2023-06-19T03:01:26.681Z,2.50
2023-06-19T03:06:19.223Z,2.58
2023-06-19T03:11:12.360Z,2.60
2023-06-19T03:16:04.507Z,3.00
2023-06-19T03:20:56.525Z,2.72
2023-06-19T03:25:48.814Z,2.50
2023-06-19T03:30:40.748Z,2.60
2023-06-19T03:35:32.821Z,3.10
2023-06-19T03:40:25.217Z,2.83
2023-06-19T03:45:17.437Z,2.42
2023-06-19T03:50:20.771Z,2.80
2023-06-19T03:55:14.327Z,2.85
2023-06-19T04:00:08.963Z,3.10
2023-06-19T04:05:07.872Z,2.80
2023-06-19T04:10:00.341Z,2.63
2023-06-19T04:14:52.205Z,2.40
2023-06-19T04:19:44.243Z,2.92
2023-06-19T04:24:36.790Z,2.88
2023-06-19T04:29:32.971Z,2.63
2023-06-19T04:34:24.812Z,2.80
2023-06-19T04:39:16.755Z,2.80
2023-06-19T04:44:09.536Z,2.75
2023-06-19T04:49:01.538Z,2.80
2023-06-19T04:53:53.795Z,2.97
2023-06-19T05:03:40.641Z,3.00
2023-06-19T05:08:32.552Z,2.47
2023-06-19T05:13:25.184Z,2.70
2023-06-19T05:18:17.463Z,2.25
2023-06-19T05:28:03.047Z,2.60
2023-06-19T05:32:56.373Z,2.67
2023-06-19T05:37:48.663Z,2.88
2023-06-19T05:42:43.509Z,2.80
2023-06-19T05:47:35.497Z,2.53
2023-06-19T05:52:27.498Z,2.80
2023-06-19T05:57:22.229Z,2.35
2023-06-19T06:02:14.483Z,2.83
2023-06-19T06:07:06.959Z,2.50
2023-06-19T06:11:58.875Z,2.30
2023-06-19T06:16:50.833Z,2.50
2023-06-19T06:21:42.824Z,2.63
2023-06-19T06:26:34.717Z,2.60
2023-06-19T06:31:26.624Z,2.88
2023-06-19T06:36:29.656Z,2.40
2023-06-19T06:41:27.848Z,2.47
2023-06-19T06:46:19.729Z,2.50
2023-06-19T06:51:11.863Z,2.65
2023-06-19T06:56:04.261Z,2.95
2023-06-19T07:05:49.239Z,2.58
2023-06-19T07:10:41.238Z,2.50
2023-06-19T07:15:33.314Z,2.50
2023-06-19T07:20:25.486Z,2.50
2023-06-19T07:30:09.892Z,2.40
2023-06-19T07:35:01.727Z,2.42
2023-06-19T07:39:53.819Z,2.90
2023-06-19T07:44:46.080Z,2.70
2023-06-19T07:54:29.960Z,2.72
2023-06-19T07:59:21.935Z,2.58
2023-06-19T08:04:13.796Z,2.80
2023-06-19T08:09:06.445Z,2.65
2023-06-19T08:13:58.298Z,2.35
2023-06-19T08:18:50.448Z,2.70
2023-06-19T08:23:44.850Z,2.33
2023-06-19T08:28:36.980Z,2.60
2023-06-19T08:33:28.840Z,2.22
2023-06-19T08:38:20.740Z,2.70
2023-06-19T08:43:13.091Z,4.75
2023-06-19T08:48:06.298Z,6.20
2023-06-19T08:53:04.826Z,7.50
2023-06-19T08:57:56.885Z,7.80
2023-06-19T09:02:57.932Z,6.90
2023-06-19T09:08:04.230Z,6.20
2023-06-19T09:13:04.014Z,5.90
2023-06-19T09:18:22.129Z,6.30
2023-06-19T09:23:14.830Z,6.63
2023-06-19T09:28:27.806Z,6.05
2023-06-19T09:33:19.851Z,5.80
2023-06-19T09:38:14.126Z,6.07
2023-06-19T09:43:08.251Z,6.03
2023-06-19T09:48:00.256Z,5.70
2023-06-19T09:53:09.944Z,5.38
2023-06-19T09:58:02.556Z,6.00
2023-06-19T10:02:54.982Z,5.55
2023-06-19T10:07:48.184Z,5.70
2023-06-19T10:12:45.231Z,5.72
2023-06-19T10:17:37.169Z,5.70
2023-06-19T10:22:32.796Z,5.65
2023-06-19T10:27:26.448Z,6.10
2023-06-19T10:32:20.836Z,6.15
2023-06-19T10:37:13.675Z,5.75
2023-06-19T10:42:09.747Z,5.90
2023-06-19T10:47:02.589Z,6.18
2023-06-19T10:52:00.092Z,6.30
2023-06-19T10:56:52.450Z,6.15
2023-06-19T11:06:39.289Z,6.28
2023-06-19T11:11:40.715Z,6.45
2023-06-19T11:16:34.025Z,5.82
2023-06-19T11:21:38.524Z,5.68
2023-06-19T11:26:30.398Z,5.95
2023-06-19T11:31:28.664Z,5.82
2023-06-19T11:36:21.341Z,6.18
2023-06-19T11:41:13.481Z,5.60
2023-06-19T11:46:11.628Z,5.65
2023-06-19T11:51:03.881Z,5.85
2023-06-19T11:55:56.777Z,5.72
2023-06-19T12:00:49.216Z,5.47
2023-06-19T12:05:41.423Z,6.07
2023-06-19T12:15:25.826Z,5.20
2023-06-19T12:20:17.905Z,5.95
2023-06-19T12:25:09.947Z,5.80
2023-06-19T12:30:01.889Z,6.10
2023-06-19T12:34:55.100Z,6.00
2023-06-19T12:39:47.750Z,6.25
2023-06-19T12:44:40.799Z,6.05
2023-06-19T12:49:32.973Z,6.35
2023-06-19T12:54:27.160Z,5.57
2023-06-19T12:59:19.182Z,5.90
2023-06-19T13:04:12.742Z,5.78
2023-06-19T13:09:06.630Z,6.20
2023-06-19T13:13:58.558Z,5.93
2023-06-19T13:18:50.707Z,5.43
2023-06-19T13:23:42.610Z,6.05
2023-06-19T13:28:34.505Z,5.97
2023-06-19T13:33:28.856Z,6.60
2023-06-19T13:38:20.726Z,6.55
2023-06-19T13:43:13.053Z,6.28
2023-06-19T13:48:05.490Z,5.82
2023-06-19T13:52:57.387Z,6.30
2023-06-19T13:57:49.352Z,6.13
2023-06-19T14:02:42.096Z,6.28
2023-06-19T14:07:34.957Z,6.40
2023-06-19T14:12:27.308Z,6.28
2023-06-19T14:17:19.189Z,6.00
2023-06-19T14:22:11.173Z,6.32
2023-06-19T14:27:03.204Z,5.88
2023-06-19T14:31:55.188Z,6.53
2023-06-19T14:36:47.419Z,6.22
2023-06-19T14:46:38.363Z,6.33
2023-06-19T14:51:31.215Z,5.68
2023-06-19T14:56:23.772Z,5.95
2023-06-19T15:01:15.722Z,6.60
2023-06-19T15:06:07.676Z,6.53
2023-06-19T15:10:59.498Z,6.32
2023-06-19T15:15:52.144Z,5.85
2023-06-19T15:20:44.394Z,6.55
2023-06-19T15:25:36.280Z,6.22
2023-06-19T15:30:28.374Z,6.50
2023-06-19T15:40:13.799Z,6.77
2023-06-19T15:45:06.406Z,7.03
2023-06-19T15:49:58.355Z,6.70
2023-06-19T15:54:50.320Z,6.47
2023-06-19T15:59:42.385Z,6.20
2023-06-19T16:04:34.574Z,6.78
2023-06-19T16:14:19.761Z,6.25
2023-06-19T16:19:11.658Z,7.30
2023-06-19T16:24:03.726Z,6.68
2023-06-19T16:28:55.650Z,6.82
2023-06-19T16:33:47.554Z,5.50
2023-06-19T16:38:39.465Z,6.07
2023-06-19T16:43:31.348Z,6.03
2023-06-19T16:48:23.349Z,6.50
2023-06-19T16:53:15.290Z,5.85
2023-06-19T16:58:07.168Z,6.43
2023-06-19T17:02:59.809Z,6.85
2023-06-19T17:07:51.775Z,6.47
2023-06-19T17:12:44.217Z,6.75
2023-06-19T17:17:36.619Z,6.25
2023-06-19T17:22:28.805Z,6.95
2023-06-19T17:27:20.881Z,6.53
2023-06-19T17:32:12.928Z,7.18
2023-06-19T17:37:05.310Z,6.75
2023-06-19T17:41:57.410Z,7.43
2023-06-19T17:46:49.699Z,6.78
2023-06-19T17:56:33.658Z,6.93
2023-06-19T18:01:25.892Z,6.43
2023-06-19T18:06:17.971Z,6.18
2023-06-19T18:11:09.942Z,6.97
2023-06-19T18:16:12.042Z,6.72
2023-06-19T18:21:04.710Z,5.47
2023-06-19T18:25:56.669Z,6.90
2023-06-19T18:30:48.776Z,6.25
2023-06-19T18:35:40.822Z,6.82
2023-06-19T18:40:32.886Z,5.55
2023-06-19T18:45:24.931Z,5.53
2023-06-19T18:50:17.037Z,6.00
2023-06-19T18:55:09.241Z,6.75
2023-06-19T19:04:53.029Z,6.68
2023-06-19T19:09:45.541Z,5.93
2023-06-19T19:14:39.338Z,6.50
2023-06-19T19:19:33.483Z,5.93
2023-06-19T19:24:25.651Z,6.40
2023-06-19T19:34:09.794Z,6.07
2023-06-19T19:39:01.811Z,5.65
2023-06-19T19:43:53.807Z,6.50
2023-06-19T19:48:45.910Z,5.68
2023-06-19T19:53:37.873Z,6.05
2023-06-19T19:58:30.914Z,6.03
2023-06-19T20:03:23.232Z,5.93
2023-06-19T20:08:15.378Z,5.95
2023-06-19T20:13:07.521Z,6.25
2023-06-19T20:17:59.599Z,6.57
2023-06-19T20:27:52.297Z,5.93
2023-06-19T20:32:54.662Z,6.45
2023-06-19T20:37:46.733Z,5.75
2023-06-19T20:42:38.781Z,5.72
2023-06-19T20:47:30.879Z,6.35
2023-06-19T20:52:23.536Z,5.50
2023-06-19T20:57:15.562Z,5.55
2023-06-19T21:02:10.245Z,6.10
2023-06-19T21:07:02.252Z,6.45
2023-06-19T21:11:54.706Z,5.63
2023-06-19T21:16:46.834Z,5.50
2023-06-19T21:21:38.830Z,5.68
2023-06-19T21:26:31.235Z,5.50
2023-06-19T21:31:23.303Z,5.68
2023-06-19T21:36:15.298Z,5.53
2023-06-19T21:41:07.289Z,6.20
2023-06-19T21:45:59.723Z,6.68
2023-06-19T21:50:51.935Z,5.47
2023-06-19T21:55:44.348Z,5.80
2023-06-19T22:00:36.373Z,6.32
2023-06-19T22:05:28.363Z,5.10
2023-06-19T22:10:20.566Z,5.78
2023-06-19T22:15:12.569Z,6.10
2023-06-19T22:20:05.605Z,6.10
2023-06-19T22:24:57.608Z,5.45
2023-06-19T22:29:49.657Z,5.95
2023-06-19T22:34:43.099Z,5.70
2023-06-19T22:39:35.263Z,6.22
2023-06-19T22:44:27.887Z,5.47
2023-06-19T22:49:19.918Z,5.68
2023-06-19T22:54:12.009Z,6.07
2023-06-19T22:59:04.105Z,5.72
2023-06-19T23:03:56.156Z,5.95
2023-06-19T23:08:50.519Z,5.97
2023-06-19T23:13:42.526Z,6.05
2023-06-19T23:18:34.441Z,5.78
2023-06-19T23:23:31.208Z,6.15
2023-06-19T23:28:23.412Z,5.72
2023-06-19T23:38:07.369Z,5.77
2023-06-19T23:42:59.364Z,5.70
2023-06-19T23:47:51.384Z,5.55
2023-06-19T23:52:45.174Z,5.88
2023-06-19T23:57:37.117Z,5.68
